Standard, California
Current Conditions -  °F | °C
As of 11:55 AM on Thursday 30 Oct 2014 (Local Time) from KO22 Reporting Station
Clear Clear  
Wind Chill: 77°   Ceiling: Unl
Heat Index: 77°   Visibility: 10mi
Dew Point: 30°   Wind: 6mph
Humidity: 18%   Direction: 170°S
Pressure: 29.98"   Gusts: NA
Location:  37.97°N, 120.31°W
Report Text: KO22 301855Z AUTO 17005KT 10SM CLR 25/M01 A2998 RMK AO1
Loading
Personal Weather Stations






























Interactive Weather Map
Tropical Storm Tracking
New forecast layout! Learn more

10-Day Weather Forecast

Advertisements
Track Severe Weather on mobile